Date,TemperatureHighF,TemperatureAvgF,TemperatureLowF,DewpointHighF,DewpointAvgF,DewpointLowF,HumidityHigh,HumidityAvg,HumidityLow,PressureMaxIn,PressureMinIn,WindSpeedMaxMPH,WindSpeedAvgMPH,GustSpeedMaxMPH,PrecipitationSumIn
2013-1-1,35.4,31.2,20.8,26.4,18.6,7.6,72,60,50,29.95,29.77,16,8,32,0.00
2013-1-2,30.2,21.7,15.3,14.5,9.6,5.5,72,60,48,30.12,29.93,12,6,21,0.00
2013-1-3,24.4,17.2,7.5,13.2,1.9,-6.1,64,52,28,30.16,30.02,10,5,15,0.00
2013-1-4,37.1,30.4,23.8,23.7,19.8,13.1,75,65,51,30.02,29.86,12,6,20,0.00
2013-1-5,41.8,34.0,29.5,23.8,20.6,18.3,67,58,43,30.29,29.90,13,5,19,0.00
2013-1-6,42.9,34.4,28.1,31.5,27.6,19.5,94,77,60,30.25,29.95,9,3,18,0.02
2013-1-7,41.5,34.9,30.0,29.6,25.0,16.6,83,68,45,30.42,29.99,10,4,17,0.00
2013-1-8,46.4,37.8,27.9,30.7,28.4,20.8,86,69,52,30.40,30.31,13,6,25,0.00
2013-1-9,44.9,38.1,29.8,37.5,32.0,26.9,90,79,63,30.41,30.03,13,4,25,0.00
2013-1-10,46.1,40.9,34.0,33.2,24.5,22.3,67,52,40,30.55,30.10,17,7,33,0.00
2013-1-11,38.2,34.9,30.3,37.2,28.1,22.5,96,76,63,30.54,30.22,6,2,11,0.19
2013-1-12,43.1,40.8,37.9,42.3,39.8,36.9,97,96,95,30.23,30.13,4,1,8,0.01
2013-1-13,50.6,45.3,41.7,49.7,44.5,41.0,98,97,95,30.18,30.04,5,3,10,0.00
2013-1-14,59.4,50.5,39.0,53.4,43.1,29.3,98,78,44,30.27,29.92,11,6,17,0.01
2013-1-15,40.7,37.4,35.2,32.1,28.2,24.6,86,70,61,30.33,30.22,6,3,10,0.07
2013-1-16,35.4,32.4,30.3,32.7,30.0,24.6,96,91,65,30.26,29.81,6,3,12,0.34
2013-1-17,41.2,35.5,31.4,32.0,27.4,17.1,94,74,55,30.10,29.88,12,5,24,0.00
2013-1-18,31.3,23.8,20.2,17.4,3.6,-5.3,59,42,28,30.50,30.04,13,6,20,0.00
2013-1-19,46.6,37.7,21.3,33.7,25.8,5.5,74,62,50,30.43,29.94,14,8,29,0.00
2013-1-20,53.3,42.5,28.4,35.2,26.9,8.2,75,55,31,29.95,29.60,18,9,33,0.00
2013-1-21,28.2,25.1,21.7,23.2,11.9,5.2,92,59,42,30.12,29.80,9,4,17,0.05
2013-1-22,24.3,19.5,12.7,22.3,6.2,-4.5,92,59,33,30.11,29.77,15,7,26,0.00
2013-1-23,14.9,10.6,7.1,2.3,-5.7,-10.4,67,47,37,30.19,30.09,16,8,28,0.00
2013-1-24,19.0,10.6,3.2,-6.2,-8.0,-9.8,61,43,30,30.27,30.10,16,8,27,0.00
2013-1-25,23.4,15.9,9.0,13.2,-4.4,-9.3,87,41,27,30.35,30.07,11,5,18,0.00
2013-1-26,24.1,17.2,11.8,13.3,4.7,-6.0,88,61,33,30.27,30.02,14,6,26,0.00
2013-1-27,29.3,20.7,12.3,3.4,1.6,-1.2,64,44,29,30.49,30.27,13,6,24,0.00
2013-1-28,30.2,25.5,20.8,27.8,13.1,0.4,95,63,35,30.48,30.02,5,2,8,0.06
2013-1-29,34.1,30.8,27.0,32.7,29.2,25.2,96,94,92,30.21,30.01,6,2,10,0.07
2013-1-30,59.7,49.4,33.4,56.7,47.9,32.1,98,95,88,30.17,29.51,17,8,34,0.04
2013-1-31,61.5,48.0,30.7,58.2,36.3,11.8,96,67,35,29.64,29.03,21,13,56,0.67
2013-2-1,31.1,27.3,21.2,14.9,8.9,3.6,55,46,34,30.13,29.64,13,9,23,0.00
2013-2-2,29.0,24.0,18.5,14.8,8.4,4.2,63,51,39,30.28,30.07,10,6,19,0.00
2013-2-3,31.6,25.0,21.1,21.0,18.7,14.0,85,77,63,30.08,29.75,8,4,13,0.00
2013-2-4,28.6,24.3,21.5,20.1,10.9,4.8,85,58,37,29.98,29.75,14,7,27,0.00
2013-2-5,24.9,23.2,21.5,22.4,15.9,9.5,91,74,58,30.05,29.95,4,2,7,0.01
2013-2-6,37.5,29.9,24.2,27.2,18.3,2.3,92,66,35,30.32,29.93,12,6,21,0.00
2013-2-7,32.6,24.7,19.2,13.5,6.0,2.8,64,45,29,30.55,30.32,6,3,11,0.00
2013-2-8,31.2,28.5,19.9,30.3,25.2,13.5,97,88,64,30.50,29.48,27,9,44,0.54
2013-2-9,22.1,18.6,14.4,20.5,16.2,7.0,95,90,72,30.22,29.48,20,11,31,0.02
2013-2-10,38.2,23.9,11.7,22.9,10.6,1.9,83,59,25,30.42,30.22,10,4,17,0.00
2013-2-11,45.2,36.1,23.2,44.4,32.6,13.3,97,87,61,30.38,29.63,9,3,19,0.27
2013-2-12,42.9,39.0,33.5,42.1,29.1,25.3,97,68,53,29.92,29.64,13,7,23,0.00
2013-2-13,41.5,34.7,30.7,27.7,24.5,21.1,78,66,53,29.90,29.69,8,3,15,0.00
2013-2-14,45.0,35.2,29.2,28.8,24.2,19.0,93,66,37,30.03,29.72,8,4,12,0.01
2013-2-15,49.4,39.1,31.4,36.8,33.3,26.7,94,81,58,30.04,29.94,9,4,19,0.00
2013-2-16,36.7,33.2,30.2,34.9,29.9,20.0,96,88,65,29.96,29.68,11,4,18,0.00
2013-2-17,30.2,21.5,15.3,23.0,10.6,0.7,92,65,35,29.73,29.42,22,13,37,0.01
2013-2-18,29.7,21.8,14.1,4.6,0.6,-2.4,54,40,25,30.20,29.73,18,10,28,0.00
2013-2-19,46.9,36.6,24.7,42.7,27.2,4.5,96,70,41,30.21,29.61,9,4,17,0.47
2013-2-20,42.1,31.7,25.2,39.9,18.9,8.6,92,61,40,29.82,29.57,16,9,27,0.00
2013-2-21,32.5,27.1,23.7,16.1,13.4,11.1,66,56,45,30.21,29.82,17,9,29,0.00
2013-2-22,39.5,31.4,24.5,24.9,21.0,15.9,75,65,52,30.39,30.21,10,4,15,0.00
2013-2-23,37.0,33.4,31.3,32.8,28.3,24.0,96,82,72,30.34,29.89,8,3,14,0.42
2013-2-24,36.4,33.9,30.5,35.4,32.7,29.2,97,95,93,29.90,29.67,11,7,20,0.22
2013-2-25,40.9,34.5,29.5,32.5,29.9,28.1,96,84,64,30.26,29.90,8,3,12,0.00
2013-2-26,42.4,37.3,34.3,33.8,29.9,26.5,89,75,59,30.35,30.14,5,2,12,0.00
2013-2-27,42.5,39.6,35.3,41.4,38.2,30.7,97,95,83,30.14,29.59,11,6,20,1.48
2013-2-28,46.2,38.8,33.9,39.5,35.7,32.6,97,89,75,29.67,29.54,6,2,11,0.00
2013-3-1,44.7,38.7,34.1,34.2,29.9,25.7,92,72,53,29.70,29.54,10,5,18,0.00
2013-3-2,39.4,36.5,33.3,28.5,26.4,24.9,74,67,59,29.70,29.64,8,4,14,0.00
2013-3-3,41.8,34.6,31.0,28.3,26.2,23.2,88,72,56,29.66,29.57,10,5,17,0.00
2013-3-4,38.7,32.9,27.6,27.5,22.3,19.4,86,65,52,29.76,29.61,16,10,28,0.00
2013-3-5,45.7,36.5,29.4,32.2,26.6,21.4,84,68,53,30.08,29.76,10,6,17,0.00
2013-3-6,40.2,36.2,34.3,35.1,32.6,29.9,94,87,71,30.07,29.98,20,11,31,0.05
2013-3-7,35.2,31.4,29.6,31.5,29.8,27.8,97,94,84,30.00,29.93,20,13,40,0.09
2013-3-8,37.9,31.7,28.7,33.9,28.4,24.0,96,89,60,30.13,29.91,15,11,32,0.14
2013-3-9,46.0,36.9,31.1,29.8,25.6,20.5,89,64,51,30.35,30.12,14,7,22,0.00
2013-3-10,47.6,36.8,30.1,33.1,30.7,27.8,91,80,54,30.42,30.33,8,4,14,0.00
2013-3-11,46.8,40.2,35.2,41.3,36.9,32.3,95,88,79,30.35,30.18,11,5,19,0.00
2013-3-12,52.4,47.8,41.0,51.6,46.5,39.6,97,95,89,30.18,29.76,14,6,24,0.68
2013-3-13,51.4,43.6,37.0,50.6,30.4,20.8,97,62,34,29.81,29.72,13,7,21,0.00
2013-3-14,36.9,30.6,23.4,25.3,15.1,5.5,73,53,38,29.87,29.74,16,8,28,0.00
2013-3-15,40.7,30.4,21.3,28.0,13.9,3.6,76,52,26,29.91,29.68,12,7,21,0.00
2013-3-16,39.2,33.9,28.9,26.9,16.3,5.8,72,50,28,29.89,29.71,10,4,18,0.00
2013-3-17,36.7,31.9,26.9,17.3,10.7,0.3,64,43,23,30.32,29.88,13,6,20,0.00
2013-3-18,35.2,28.2,20.2,25.4,9.7,-1.5,86,47,28,30.48,30.23,9,4,17,0.00
2013-3-19,36.8,32.4,28.0,35.8,31.1,25.5,97,95,87,30.23,29.58,15,7,22,0.81
2013-3-20,39.3,33.1,27.7,27.9,20.2,16.5,90,61,42,29.84,29.70,14,7,28,0.00
2013-3-21,36.7,32.0,29.7,27.9,22.4,17.1,90,68,54,29.84,29.62,7,3,14,0.00
2013-3-22,39.2,33.0,26.3,26.8,18.3,13.5,84,55,40,29.79,29.63,12,8,22,0.00
2013-3-23,41.6,35.3,29.9,24.0,19.6,15.4,74,54,36,29.83,29.69,19,10,28,0.00
2013-3-24,47.9,38.1,30.8,28.9,22.5,18.4,73,54,36,29.86,29.73,10,6,17,0.00
2013-3-25,44.4,37.7,33.0,32.8,28.3,24.1,87,69,46,29.78,29.49,17,7,27,0.00
2013-3-26,45.7,39.1,34.9,31.4,25.9,20.9,86,60,40,29.81,29.52,10,6,17,0.00
2013-3-27,51.1,42.4,32.3,30.0,23.1,19.2,63,47,31,29.88,29.77,12,6,21,0.00
2013-3-28,47.4,42.1,36.4,34.1,31.6,28.3,89,67,50,30.04,29.88,9,4,17,0.00
2013-3-29,55.1,46.5,38.0,33.5,31.1,26.6,79,56,36,30.07,29.99,11,5,15,0.00
2013-3-30,55.7,47.4,39.1,32.4,23.2,12.9,69,42,19,30.12,30.02,9,5,17,0.00
2013-3-31,55.9,46.3,36.6,43.5,28.7,18.9,94,53,28,30.14,29.74,12,5,23,0.11
2013-4-1,59.2,46.6,34.9,45.7,38.2,13.7,96,74,40,29.83,29.55,17,8,27,0.19
2013-4-2,39.2,34.0,29.5,16.8,12.8,5.6,58,42,26,30.00,29.83,15,8,26,0.00
2013-4-3,43.5,35.5,30.0,16.1,12.8,9.1,55,40,25,30.20,29.98,16,10,28,0.00
2013-4-4,53.2,38.8,29.4,30.8,19.2,11.1,77,47,22,30.34,30.10,10,6,19,0.00
2013-4-5,59.6,45.6,37.4,35.1,28.1,17.2,77,55,22,30.10,29.65,13,6,22,0.00
2013-4-6,46.9,38.9,32.9,27.1,13.7,-0.3,66,39,15,30.35,29.90,13,6,21,0.00
2013-4-7,49.7,42.3,32.4,42.6,31.5,17.0,84,66,42,30.35,30.05,16,6,29,0.00
2013-4-8,64.1,51.9,45.4,44.5,42.1,37.2,92,72,38,30.12,29.99,9,5,15,0.00
2013-4-9,73.5,57.6,45.3,53.2,44.0,38.9,97,66,33,30.11,29.86,15,6,23,0.00
2013-4-10,66.9,51.9,44.5,49.6,45.1,42.6,94,79,53,30.04,29.87,8,4,17,0.37
2013-4-11,53.9,48.0,44.9,46.6,42.0,33.8,96,81,58,30.14,29.83,10,4,13,0.00
2013-4-12,45.2,39.9,37.1,37.3,34.7,29.5,95,82,64,30.16,29.76,12,7,22,0.50
2013-4-13,52.6,44.2,35.7,37.7,34.9,32.8,94,72,49,29.96,29.73,13,6,22,0.00
2013-4-14,51.9,46.2,40.3,38.8,31.8,24.7,80,59,36,30.24,29.94,13,6,24,0.00
2013-4-15,53.2,44.5,37.4,39.5,32.0,25.7,87,62,43,30.42,30.23,9,4,18,0.00
2013-4-16,57.2,49.3,39.8,49.0,43.0,36.0,93,79,62,30.43,30.13,13,7,24,0.00
2013-4-17,67.0,56.2,47.0,52.1,41.8,28.5,89,63,24,30.34,30.09,10,5,18,0.00
2013-4-18,56.5,49.9,41.5,46.2,38.5,31.5,89,67,41,30.43,30.18,11,5,18,0.00
2013-4-19,68.3,59.5,49.8,62.0,56.9,46.2,97,92,78,30.18,29.72,16,8,25,0.00
2013-4-20,62.8,53.8,45.2,61.2,41.9,26.7,96,68,39,30.24,29.65,16,7,29,0.40
2013-4-21,54.3,42.6,33.8,32.5,23.7,19.3,69,49,27,30.69,30.24,13,5,18,0.00
2013-4-22,52.0,43.4,36.2,34.4,30.8,25.6,80,63,37,30.74,30.58,11,5,21,0.00
2013-4-23,42.2,40.6,38.7,40.3,37.7,31.6,95,90,74,30.59,30.08,13,9,27,0.01
2013-4-24,68.7,51.4,41.0,48.9,43.9,39.4,95,78,41,30.09,29.86,13,8,22,0.00
2013-4-25,62.7,54.6,45.7,50.9,34.2,18.6,93,53,20,30.28,29.88,14,6,24,0.03
2013-4-26,60.4,51.8,45.1,42.1,34.6,21.6,83,53,33,30.43,30.28,10,4,18,0.00
2013-4-27,58.7,49.1,39.7,43.1,38.0,32.3,93,68,40,30.43,30.33,9,4,18,0.00
2013-4-28,61.5,51.9,41.7,45.4,37.4,26.1,88,61,27,30.36,30.26,13,4,25,0.00
2013-4-29,61.3,53.1,47.6,47.3,39.1,20.7,90,63,21,30.30,30.24,10,4,19,0.00
2013-4-30,64.7,54.6,44.2,41.9,33.2,22.8,86,48,25,30.37,30.27,9,3,15,0.00
2013-5-1,70.0,55.8,43.3,47.3,39.2,30.5,76,56,32,30.49,30.37,7,3,12,0.00
2013-5-2,73.8,56.8,45.4,45.4,41.8,36.6,88,61,32,30.49,30.35,11,3,17,0.00
2013-5-3,59.3,50.4,42.7,44.3,40.5,37.3,85,69,57,30.51,30.39,13,6,24,0.00
2013-5-4,60.7,50.7,41.7,44.2,37.8,28.5,85,64,31,30.39,30.29,12,5,21,0.00
2013-5-5,62.9,49.9,38.0,44.9,40.3,35.9,93,72,43,30.33,30.24,7,3,14,0.00
2013-5-6,65.8,52.6,42.2,51.5,45.5,39.8,94,78,53,30.31,30.17,8,3,16,0.00
2013-5-7,70.7,58.5,46.0,60.3,52.6,44.9,97,82,57,30.21,30.13,9,3,16,0.00
2013-5-8,69.5,61.5,55.1,62.5,58.2,53.7,96,89,74,30.20,30.06,11,3,24,0.12
2013-5-9,67.8,59.1,55.9,61.7,57.1,54.6,98,93,66,30.06,29.89,5,1,10,0.42
2013-5-10,76.2,64.7,55.0,58.9,56.2,53.9,97,76,48,29.98,29.91,8,3,14,0.00
2013-5-11,69.8,60.7,55.5,60.7,58.0,54.4,97,91,70,29.96,29.72,12,5,23,0.20
2013-5-12,70.9,60.3,51.9,61.2,51.2,28.4,98,75,40,29.85,29.60,12,4,20,0.02
2013-5-13,58.2,50.6,43.8,33.1,29.3,26.2,65,45,31,30.05,29.85,9,5,19,0.00
2013-5-14,58.3,49.3,40.2,33.2,29.9,26.5,71,48,33,30.08,30.00,9,4,19,0.00
2013-5-15,62.0,52.3,42.4,52.4,41.0,30.4,92,68,33,30.08,29.72,11,5,20,0.02
2013-5-16,80.7,66.1,52.8,52.5,46.4,36.0,93,55,21,29.82,29.67,13,5,19,0.00
2013-5-17,69.5,59.8,52.1,51.1,42.9,38.9,72,55,34,30.24,29.82,8,4,17,0.00
2013-5-18,70.5,59.4,47.8,49.1,45.0,38.1,85,61,31,30.32,30.24,9,3,17,0.00
2013-5-19,67.1,57.7,51.3,54.4,50.2,46.3,96,77,59,30.37,30.24,9,4,16,0.07
2013-5-20,81.9,67.6,55.5,66.7,61.4,54.4,98,82,53,30.24,29.93,7,3,13,0.01
2013-5-21,83.6,66.9,51.6,72.1,61.9,50.3,96,85,59,30.01,29.83,12,3,26,0.14
2013-5-22,74.2,59.5,51.0,66.0,56.6,49.3,97,91,73,30.02,29.89,9,3,15,0.02
2013-5-23,74.7,65.9,59.6,67.9,63.5,58.6,98,92,76,29.94,29.85,13,6,28,0.15
2013-5-24,66.2,60.6,49.3,64.0,59.5,47.8,98,96,89,29.85,29.69,8,4,16,0.48
2013-5-25,51.9,47.1,41.3,48.7,45.0,37.8,97,93,84,29.82,29.72,12,6,20,0.17
2013-5-26,57.9,48.9,40.6,44.6,39.3,35.9,90,71,49,30.15,29.77,16,9,32,0.01
2013-5-27,71.6,58.6,44.2,44.2,38.1,31.2,86,51,26,30.18,30.10,14,5,22,0.00
2013-5-28,71.2,60.5,48.9,55.7,47.4,39.3,92,64,36,30.25,30.18,7,3,15,0.00
2013-5-29,72.4,61.9,56.5,65.0,59.3,55.2,97,92,77,30.21,30.02,8,3,18,0.63
2013-5-30,88.8,75.9,62.2,70.0,66.2,61.3,97,75,47,30.12,30.03,8,3,16,0.14
2013-5-31,91.7,80.4,71.2,71.6,66.2,58.4,83,63,41,30.11,29.98,9,4,18,0.00
2013-6-1,88.7,76.9,65.9,69.2,65.2,62.1,90,69,46,30.01,29.91,10,4,18,0.00
2013-6-2,81.1,71.4,65.8,68.2,64.8,62.6,90,80,63,29.94,29.81,11,5,18,0.00
2013-6-3,71.9,66.4,63.1,67.6,63.9,57.8,96,92,79,29.87,29.80,7,3,12,0.35
2013-6-4,69.8,62.3,52.1,57.4,44.6,39.0,78,53,40,30.09,29.84,12,6,17,0.00
2013-6-5,72.4,62.2,52.2,51.0,46.7,42.2,82,58,38,30.21,30.09,7,3,15,0.00
2013-6-6,69.3,61.2,54.7,57.8,52.5,47.3,90,74,53,30.21,30.11,7,3,16,0.00
2013-6-7,59.7,56.4,54.0,58.6,54.9,52.4,98,95,85,30.11,29.78,11,4,18,2.66
2013-6-8,77.7,63.8,53.3,64.2,57.9,52.8,98,83,61,30.03,29.60,10,6,18,0.68
2013-6-9,78.1,69.4,59.6,60.6,56.2,51.9,87,65,44,30.18,30.03,9,4,16,0.00
2013-6-10,70.2,64.2,57.4,63.8,59.0,55.2,96,84,67,30.21,30.00,4,2,8,1.09
2013-6-11,73.9,61.9,57.2,66.8,60.2,56.1,98,94,75,30.00,29.55,8,3,15,1.12
2013-6-12,69.8,63.5,58.1,59.6,53.9,51.5,97,72,54,29.84,29.59,13,7,23,0.00
2013-6-13,63.2,57.5,50.9,57.0,53.5,49.8,96,87,73,29.84,29.63,11,3,20,0.38
2013-6-14,70.5,59.5,51.0,56.9,52.2,46.2,97,79,55,29.79,29.60,14,7,25,1.23
2013-6-15,77.5,68.5,59.5,54.4,48.3,41.3,75,51,29,29.97,29.79,9,4,16,0.00
2013-6-16,76.0,67.8,57.9,63.6,55.1,48.1,89,65,43,29.97,29.76,7,3,18,0.00
2013-6-17,82.8,71.8,63.7,66.3,61.3,56.6,88,71,45,29.93,29.81,11,4,32,0.02
2013-6-18,80.1,65.9,57.7,64.0,59.5,56.3,96,81,53,29.95,29.86,14,3,27,0.47
2013-6-19,75.5,64.4,55.2,57.3,53.3,45.6,96,70,40,30.17,29.90,8,4,15,0.03
2013-6-20,77.3,66.7,55.7,56.7,52.8,44.8,93,64,36,30.28,30.17,7,3,14,0.00
2013-6-21,81.6,70.4,59.3,64.1,58.5,53.0,88,67,52,30.29,30.21,7,4,16,0.00
2013-6-22,81.8,71.0,62.9,64.2,57.0,51.6,86,62,43,30.25,30.16,7,4,14,0.00
2013-6-23,86.4,74.6,64.0,70.4,65.4,60.3,90,74,50,30.20,30.05,10,5,20,0.00
2013-6-24,90.9,79.1,70.0,73.7,70.1,66.5,92,76,53,30.07,29.90,13,4,22,0.09
2013-6-25,90.4,78.5,67.5,72.0,68.0,64.7,92,72,45,29.96,29.76,8,4,17,0.00
2013-6-26,85.0,77.0,69.6,72.8,69.4,67.3,94,78,57,29.86,29.74,9,3,16,0.05
2013-6-27,72.3,67.6,64.2,69.1,65.8,63.3,97,94,87,29.87,29.75,5,2,9,0.02
2013-6-28,77.8,70.3,64.7,72.3,68.5,63.8,98,94,78,29.76,29.54,9,4,20,0.51
2013-6-29,79.3,72.3,68.3,70.8,68.4,65.8,98,88,65,29.76,29.53,9,4,18,0.23
2013-6-30,78.5,72.4,68.9,72.1,69.3,67.5,97,90,76,29.97,29.75,8,3,17,0.18
2013-7-1,79.5,72.6,70.1,74.6,71.0,69.2,98,95,82,30.12,29.96,7,3,16,0.34
2013-7-2,80.8,74.4,71.6,74.1,71.5,70.2,97,91,76,30.22,30.11,7,4,17,0.00
2013-7-3,86.6,77.3,71.2,73.8,71.2,68.9,93,82,63,30.25,30.18,9,5,18,0.00
2013-7-4,88.9,81.0,74.1,76.1,73.4,71.1,93,79,62,30.24,30.14,8,5,17,0.00
2013-7-5,91.6,82.3,74.9,75.5,72.7,70.7,88,74,52,30.20,30.08,8,4,17,0.00
2013-7-6,90.3,82.9,76.1,75.0,72.6,70.8,86,72,55,30.11,30.00,9,4,14,0.00
2013-7-7,91.1,82.6,75.1,77.3,72.5,69.7,86,72,58,30.05,29.92,7,3,14,0.00
2013-7-8,88.8,80.5,69.4,73.6,70.8,66.5,91,73,52,30.06,29.93,8,4,17,0.00
2013-7-9,78.8,71.5,66.3,70.5,67.4,64.6,96,87,68,30.11,30.04,6,2,11,0.02
2013-7-10,81.7,74.6,69.5,74.8,71.5,67.9,96,90,78,30.08,29.83,8,3,17,0.00
2013-7-11,76.2,74.6,69.5,73.4,72.0,68.0,97,92,87,29.94,29.81,6,2,11,1.20
2013-7-12,74.7,70.6,65.7,69.6,64.1,59.2,94,80,69,30.20,29.93,11,6,21,0.00
2013-7-13,77.9,70.3,65.1,75.0,68.3,62.3,97,93,82,30.32,30.20,6,2,11,0.29
2013-7-14,90.4,80.2,71.8,75.3,72.4,68.2,98,79,51,30.32,30.22,7,3,14,0.00
2013-7-15,91.7,83.2,76.4,74.4,72.6,69.7,89,72,52,30.23,30.11,6,3,12,0.00
2013-7-16,92.7,83.2,76.2,73.7,69.9,66.5,82,65,45,30.18,30.11,7,3,15,0.00
2013-7-17,87.6,80.7,74.7,73.9,71.6,68.9,89,74,61,30.20,30.05,7,2,14,0.00
2013-7-18,94.3,83.4,77.0,76.4,72.6,68.4,87,71,45,30.06,29.96,7,3,12,0.00
2013-7-19,94.6,85.1,77.3,78.0,75.3,73.7,90,74,53,29.97,29.77,12,5,21,0.00
2013-7-20,91.8,82.2,73.1,76.4,74.6,70.6,94,78,57,29.84,29.67,11,4,20,0.53
2013-7-21,82.3,75.1,69.7,72.1,67.1,63.5,94,77,60,30.00,29.83,5,2,10,0.00
2013-7-22,84.6,75.4,69.1,71.3,69.0,66.8,94,81,60,30.02,29.89,6,2,10,0.00
2013-7-23,85.2,75.3,71.5,75.7,72.0,68.8,97,90,71,29.89,29.56,10,2,20,0.32
2013-7-24,83.4,76.8,70.9,71.3,68.0,59.4,94,75,60,29.94,29.60,8,3,14,0.00
2013-7-25,70.8,61.4,58.5,59.3,55.7,50.4,96,82,66,30.09,29.94,11,7,19,0.45
2013-7-26,70.5,63.7,59.4,66.0,61.6,58.0,97,93,84,30.05,29.95,8,5,17,0.29
2013-7-27,81.8,71.6,64.3,68.5,64.9,59.9,96,81,50,30.08,30.02,7,3,13,0.00
2013-7-28,86.0,73.1,66.5,71.6,67.8,65.1,96,84,58,30.04,29.97,6,2,13,0.00
2013-7-29,79.9,73.7,69.3,73.8,70.1,65.7,96,89,80,30.06,29.99,9,3,16,0.05
2013-7-30,79.9,72.3,65.0,65.5,59.0,55.4,82,64,45,30.12,30.06,9,4,15,0.00
2013-7-31,80.6,71.8,63.3,64.6,60.4,57.1,81,68,51,30.15,30.06,6,2,10,0.00
2013-8-1,77.3,69.9,64.8,67.1,62.5,58.9,93,78,57,30.08,29.91,8,3,17,0.02
2013-8-2,81.4,72.0,64.6,67.7,63.4,59.9,96,76,50,29.91,29.82,8,3,16,0.25
2013-8-3,76.3,70.8,65.6,65.4,63.4,61.0,90,78,62,29.90,29.82,7,4,13,0.01
2013-8-4,74.2,65.2,61.1,61.2,57.0,53.8,86,75,50,29.87,29.83,7,3,12,0.00
2013-8-16,78.3,72.0,66.4,58.8,55.9,51.7,71,58,45,30.22,30.15,7,3,15,0.00
2013-8-17,81.3,70.8,61.2,60.7,57.3,53.9,80,64,45,30.30,30.22,6,2,9,0.00
2013-8-18,76.9,68.6,61.6,62.3,57.8,49.5,89,70,40,30.29,30.12,4,1,9,0.00
2013-8-19,78.7,70.5,61.2,64.1,59.9,54.9,84,70,47,30.12,29.99,8,4,13,0.01
2013-8-20,84.1,75.0,65.7,64.7,61.7,54.1,86,65,38,30.12,30.00,6,3,11,0.00
2013-8-21,85.8,76.3,66.3,66.5,63.2,59.3,85,66,44,30.17,30.06,6,3,15,0.00
2013-8-22,82.6,73.6,68.0,72.3,68.4,63.5,92,84,69,30.07,29.87,9,3,15,0.01
2013-8-23,79.8,72.2,65.0,68.7,62.0,54.4,92,72,46,30.12,29.85,9,3,17,0.00
2013-8-24,76.2,66.6,57.1,56.1,48.7,40.0,77,55,29,30.36,30.12,10,4,15,0.00
2013-8-25,79.9,68.8,56.9,58.4,54.0,46.4,91,62,33,30.38,30.23,7,2,12,0.00
2013-8-26,78.6,71.1,65.9,66.8,62.0,56.7,92,73,61,30.23,29.92,8,4,13,0.02
2013-8-27,81.5,71.9,68.0,71.3,67.5,64.5,97,87,64,29.92,29.84,7,2,14,0.65
2013-8-28,86.3,72.9,64.5,70.0,66.5,63.0,95,82,57,29.96,29.87,7,1,10,0.00
2013-8-29,67.0,63.9,60.8,65.0,61.4,57.6,95,92,88,30.08,29.95,10,5,16,0.00
2013-8-30,78.9,67.9,59.6,68.7,62.8,56.7,92,84,69,30.05,29.87,6,3,13,0.00
2013-8-31,78.6,73.6,68.9,72.1,69.9,67.0,95,88,80,29.88,29.83,7,3,12,0.00
2013-9-1,80.2,73.2,69.6,74.3,70.7,68.2,97,92,78,29.91,29.84,7,3,14,0.29
2013-9-2,73.2,71.0,67.7,72.5,70.3,66.8,98,98,96,29.89,29.74,6,2,12,0.84
2013-9-3,78.5,70.9,64.0,71.4,68.3,60.1,98,92,72,29.86,29.72,7,3,13,0.31
2013-9-4,77.8,68.5,59.2,60.6,58.3,56.0,90,72,49,29.96,29.84,8,4,14,0.00
2013-9-5,70.8,64.5,56.7,63.3,57.2,50.9,93,78,54,30.15,29.90,10,3,17,0.08
2013-9-6,67.8,57.8,49.2,54.3,44.0,38.8,92,62,40,30.26,30.13,6,3,14,0.00
2013-9-7,76.1,64.0,51.5,57.2,50.7,45.3,84,64,43,30.13,29.90,8,4,13,0.00
2013-9-8,76.1,66.3,54.6,62.7,53.9,41.1,86,66,40,30.11,29.78,12,5,21,0.00
2013-9-9,66.9,58.0,48.5,52.1,45.9,40.9,76,65,48,30.26,30.11,8,3,14,0.00
2013-9-10,73.3,66.6,57.6,68.6,61.9,50.4,95,85,75,30.20,30.08,9,4,17,0.00
2013-9-11,92.3,77.4,68.2,77.7,71.6,67.3,97,83,57,30.11,29.99,8,3,13,0.00
2013-9-12,83.6,74.5,68.6,73.6,69.8,67.4,97,86,65,30.01,29.70,10,4,18,0.68
2013-9-13,78.4,69.3,61.1,68.3,64.6,55.6,97,86,62,29.78,29.59,9,2,14,0.12
2013-9-14,67.2,60.5,53.9,55.6,52.7,50.1,88,76,61,30.08,29.77,8,4,13,0.00
2013-9-15,69.5,59.6,50.5,53.9,50.0,46.8,89,72,48,30.19,30.08,6,3,10,0.00
2013-9-16,68.6,59.2,49.2,56.0,52.0,38.4,88,77,62,30.25,30.04,9,3,16,0.02
2013-9-17,61.7,51.9,41.8,44.2,38.2,34.2,80,61,37,30.44,30.25,10,4,18,0.00
2013-9-18,71.4,58.4,46.0,50.9,44.4,39.5,82,62,36,30.36,30.18,5,3,10,0.00
2013-9-19,76.3,63.7,52.1,58.1,51.5,46.6,85,66,41,30.18,30.06,5,2,10,0.00
2013-9-20,77.2,64.4,53.1,59.9,55.4,50.5,93,74,47,30.11,30.02,7,2,13,0.00
2013-9-21,73.6,64.7,56.8,66.0,61.3,56.0,98,89,73,30.06,29.76,11,4,21,0.01
2013-9-22,69.2,63.8,51.9,66.8,57.0,45.6,95,80,53,29.86,29.65,11,6,24,0.46
2013-9-23,64.0,53.8,46.5,45.7,42.4,38.5,82,66,49,30.03,29.85,9,5,16,0.00
2013-9-24,66.1,53.7,43.3,47.5,42.3,38.8,85,67,43,30.03,29.84,9,4,15,0.00
2013-9-25,68.6,57.4,47.7,52.4,47.4,43.1,85,70,54,30.00,29.89,8,2,13,0.00
2013-9-26,65.8,57.9,53.5,50.1,48.1,44.5,82,71,51,30.14,30.00,7,2,12,0.00
2013-9-27,65.1,58.1,51.8,52.9,50.3,47.4,87,75,63,30.28,30.13,8,3,14,0.00
2013-9-28,73.5,60.1,50.5,55.3,51.5,47.6,93,75,48,30.34,30.27,7,3,15,0.00
2013-9-29,70.4,57.1,46.7,53.8,49.2,42.9,96,78,40,30.28,30.13,6,2,11,0.01
2013-9-30,68.8,57.9,50.9,54.3,49.3,43.0,97,76,46,30.14,29.98,5,2,10,0.00
2013-10-1,76.6,63.4,48.9,57.7,51.6,45.6,90,68,40,29.98,29.87,7,3,12,0.00
2013-10-2,78.8,68.4,59.2,61.8,57.9,54.1,84,70,54,29.99,29.87,10,4,20,0.00
2013-10-3,78.6,66.2,57.1,57.7,50.8,40.2,83,61,30,30.11,29.99,6,3,11,0.00
2013-10-4,67.0,58.9,55.3,56.8,53.3,48.4,94,82,59,30.10,30.05,6,2,11,0.09
2013-10-5,70.4,61.8,57.4,61.4,57.5,53.9,94,86,72,30.14,30.07,5,1,7,0.01
2013-10-6,59.9,58.2,55.6,57.6,55.7,53.6,96,92,84,30.22,30.13,5,2,11,0.04
2013-10-7,74.3,66.0,56.3,69.3,63.7,55.2,98,92,84,30.14,29.87,10,5,28,0.04
2013-10-8,66.4,58.5,51.8,56.2,45.9,40.3,84,64,41,30.37,29.93,8,4,15,0.00
2013-10-9,63.5,53.6,46.7,47.1,43.8,39.6,89,70,50,30.46,30.36,11,5,19,0.00
2013-10-10,64.8,54.8,47.8,54.5,50.3,45.3,93,85,68,30.36,30.17,8,4,15,0.00
2013-10-11,67.9,58.5,53.1,57.8,52.5,43.4,94,81,61,30.17,30.10,9,5,15,0.00
2013-10-12,66.5,56.9,52.4,56.2,51.7,46.5,91,83,69,30.39,30.14,11,6,20,0.00
2013-10-13,60.8,53.0,46.3,49.4,46.9,42.8,91,80,64,30.45,30.36,8,4,17,0.00
2013-10-14,63.0,51.0,39.1,48.8,43.0,35.8,95,76,41,30.43,30.28,4,1,8,0.00
2013-10-15,72.2,57.2,46.3,51.8,48.6,44.4,94,75,47,30.29,30.18,5,1,9,0.00
2013-10-16,61.3,54.6,47.8,56.1,51.9,46.4,97,91,81,30.19,29.94,6,2,9,0.01
2013-10-17,69.3,60.8,54.3,60.9,57.6,52.9,96,90,73,29.94,29.75,7,3,13,0.02
2013-10-18,67.0,61.3,51.4,61.5,51.0,42.7,96,71,47,29.95,29.66,12,5,25,0.01
2013-10-19,63.2,55.0,45.0,49.9,44.3,39.5,83,68,43,30.01,29.77,6,2,15,0.00
2013-10-20,61.2,54.8,46.7,53.1,40.6,31.3,92,62,34,30.05,29.72,11,4,20,0.00
2013-10-21,65.5,53.9,43.8,45.5,39.5,34.8,75,60,38,30.15,30.03,6,3,14,0.00
2013-10-22,69.0,56.2,46.4,53.0,47.3,40.6,93,74,42,30.03,29.73,8,3,15,0.00
2013-10-23,49.6,46.3,41.6,40.6,35.9,31.2,86,68,50,29.82,29.61,6,1,9,0.00
2013-10-24,51.4,45.2,38.3,34.6,30.0,23.8,81,57,34,29.92,29.67,10,5,21,0.00
2013-10-25,48.4,42.4,36.3,34.2,28.8,26.4,75,59,43,30.20,29.92,11,5,21,0.00
2013-10-26,53.9,45.2,35.8,39.0,32.4,27.9,80,62,38,30.19,29.90,12,5,23,0.00
2013-10-27,54.4,48.2,41.0,39.3,34.1,29.4,83,59,43,30.10,29.85,9,4,15,0.01
2013-10-28,58.6,46.2,35.8,34.6,32.0,26.4,83,59,39,30.36,30.10,11,4,21,0.00
2013-10-29,50.5,41.1,35.7,33.5,26.2,23.0,81,57,35,30.45,30.36,5,2,10,0.00
2013-10-30,54.4,45.0,36.3,44.4,39.0,31.5,89,80,65,30.39,30.22,6,1,12,0.00
2013-10-31,62.9,52.0,38.8,60.4,49.4,36.9,94,91,85,30.26,29.84,8,3,17,0.07
2013-11-1,68.6,63.8,60.0,63.4,58.9,54.1,95,84,72,29.84,29.53,17,8,29,0.07
2013-11-2,65.6,57.7,52.8,54.3,48.6,40.7,86,72,47,29.74,29.61,7,2,13,0.00
2013-11-3,53.7,42.9,33.1,46.5,32.1,16.5,84,67,41,30.42,29.74,9,5,18,0.00
2013-11-4,43.7,34.9,29.2,24.6,19.7,15.3,76,55,33,30.73,30.42,9,4,17,0.00
2013-11-5,51.0,39.6,28.0,35.5,28.3,22.7,81,65,41,30.73,30.55,5,2,8,0.00
2013-11-6,59.2,49.6,39.9,50.6,42.9,34.7,94,78,53,30.55,30.08,9,3,18,0.00
2013-11-7,64.3,54.0,40.2,59.6,50.7,33.1,97,89,75,30.08,29.69,10,5,19,0.30
2013-11-8,48.3,40.1,33.6,34.0,27.3,21.5,84,61,43,30.14,29.85,16,6,36,0.00
2013-11-9,43.8,38.5,30.8,32.4,25.5,21.5,78,60,43,30.25,30.06,9,4,15,0.00
2013-11-10,55.1,46.6,42.1,41.8,37.4,32.4,85,71,49,30.06,29.75,13,4,20,0.05
2013-11-11,52.1,45.1,38.3,38.3,29.7,25.8,67,55,38,30.14,29.91,14,6,28,0.00
2013-11-12,50.4,36.7,27.7,37.9,25.7,14.9,92,65,52,30.21,29.91,10,6,21,0.03
2013-11-13,36.1,29.4,24.0,15.9,14.0,9.9,69,53,36,30.31,30.21,10,5,16,0.00
2013-11-14,50.6,40.5,28.7,26.0,20.2,15.2,61,45,32,30.21,30.08,10,5,20,0.00
2013-11-15,59.4,48.6,42.0,39.6,27.0,14.9,83,46,25,30.24,30.15,9,4,16,0.00
2013-11-16,58.9,49.3,43.2,42.9,36.1,26.8,89,62,42,30.34,30.22,6,2,14,0.00
2013-11-17,57.0,49.2,38.1,56.4,46.9,36.3,98,92,75,30.32,29.87,5,1,10,0.14
2013-11-18,65.7,58.7,49.0,61.4,47.6,31.2,98,70,41,29.86,29.57,13,7,20,0.41
2013-11-19,49.0,40.5,31.7,31.2,23.2,17.4,58,50,41,30.30,29.68,15,8,25,0.00
2013-11-20,41.6,33.2,27.0,17.7,13.6,8.7,62,45,27,30.64,30.30,9,4,16,0.00
2013-11-21,46.4,37.6,27.0,35.0,21.4,13.7,74,53,33,30.65,30.41,5,3,11,0.00
2013-11-22,50.3,46.8,42.8,49.2,43.3,35.1,96,88,74,30.41,29.85,6,3,9,0.08
2013-11-23,49.9,40.9,29.6,46.7,26.6,12.9,91,58,30,29.93,29.82,14,8,25,0.00
2013-11-24,29.5,23.4,20.3,15.0,3.2,-5.3,59,42,25,30.24,29.83,19,13,32,0.01
2013-11-25,32.8,25.0,16.9,20.9,4.0,-7.1,64,41,22,30.41,30.24,12,6,22,0.00
2013-11-26,43.0,37.6,31.8,39.1,25.5,17.8,96,63,43,30.35,30.02,9,4,15,0.16
2013-11-27,59.2,50.3,36.4,58.3,49.0,31.3,98,95,82,30.03,29.23,18,9,35,2.75
2013-11-28,36.6,30.2,24.7,31.4,16.2,8.6,82,56,40,30.47,29.52,17,9,30,0.00
2013-11-29,34.7,28.3,22.6,15.7,12.1,3.1,63,51,38,30.75,30.47,8,4,13,0.00
2013-11-30,34.1,26.3,17.2,23.3,15.1,6.4,75,63,49,30.80,30.45,6,3,12,0.00
2013-12-1,43.1,36.3,30.2,42.0,33.6,23.2,97,90,75,30.45,30.02,6,2,10,0.28
2013-12-2,40.7,37.1,35.5,39.8,36.0,34.5,98,96,92,30.02,29.92,5,2,10,0.00
2013-12-3,49.7,39.3,33.4,37.6,34.1,31.0,97,83,54,29.98,29.86,6,4,10,0.00
2013-12-4,49.5,38.5,32.8,34.9,30.8,28.5,86,75,49,30.22,29.97,6,2,9,0.00
2013-12-5,53.8,44.3,35.6,53.2,41.9,31.3,98,91,81,30.22,29.96,7,2,11,0.00
2013-12-6,56.0,48.9,35.8,55.4,46.9,34.0,98,93,81,30.14,29.89,9,4,18,0.28
2013-12-7,38.6,34.3,29.4,34.0,28.3,22.0,95,79,57,30.48,30.08,11,4,18,0.10
2013-12-8,30.3,28.2,24.2,22.6,18.5,15.4,84,67,55,30.62,30.47,6,2,9,0.00
2013-12-9,38.6,32.9,25.7,37.8,31.3,17.9,97,94,64,30.51,29.91,6,4,10,0.24
2013-12-10,34.5,31.4,24.5,33.6,29.1,19.3,97,91,76,30.05,29.80,9,4,15,0.05
2013-12-11,29.2,27.6,24.2,20.3,19.0,17.2,81,70,66,30.23,30.05,10,6,15,0.00
2013-12-12,26.1,21.7,18.0,17.3,8.0,0.7,77,56,39,30.30,30.10,12,6,19,0.00
2013-12-13,30.1,23.9,17.1,17.7,11.2,6.0,75,58,46,30.38,30.04,13,7,19,0.00
2013-12-14,27.2,17.1,12.1,25.9,7.9,-5.4,95,69,42,30.61,30.11,9,6,16,0.19
2013-12-15,36.2,29.6,24.1,35.4,27.0,20.8,97,90,76,30.11,29.40,13,7,20,0.60
2013-12-16,28.0,25.0,18.3,22.3,13.3,7.4,83,62,43,30.23,29.78,13,5,23,0.00
2013-12-17,20.9,16.4,11.1,18.9,12.3,6.4,92,84,67,30.29,29.94,10,4,18,0.04
2013-12-18,32.9,26.2,17.8,21.7,19.6,15.4,91,77,58,30.13,29.87,12,6,18,0.01
2013-12-19,44.7,35.4,27.1,28.0,24.2,19.6,75,64,51,30.15,29.99,12,5,25,0.00
2013-12-20,53.2,42.7,34.4,39.5,33.7,27.4,83,71,53,30.15,29.96,8,3,17,0.00
2013-12-21,59.2,50.4,42.2,51.5,45.9,38.0,94,85,69,30.02,29.91,9,5,16,0.00
2013-12-22,62.6,56.0,40.4,59.5,53.1,38.4,93,90,82,30.01,29.80,13,7,27,0.00
2013-12-23,40.9,37.4,33.9,40.0,36.4,33.1,97,96,92,30.10,29.96,9,3,13,0.51
2013-12-24,40.1,33.2,27.1,38.0,23.8,13.5,92,69,46,30.23,30.05,11,5,16,0.00
2013-12-25,27.1,20.1,16.6,14.1,5.5,1.6,66,53,41,30.57,30.22,14,5,26,0.00
2013-12-26,35.8,27.6,19.7,32.3,22.5,10.2,93,81,66,30.51,30.11,7,2,14,0.02
2013-12-27,35.2,30.3,25.4,22.3,20.2,17.2,82,67,49,30.32,30.23,9,4,17,0.00
2013-12-28,48.7,37.9,28.2,29.9,25.8,21.5,80,63,42,30.26,30.03,11,4,21,0.00
2013-12-29,43.8,39.5,35.8,40.3,34.9,29.5,96,84,70,30.06,29.36,12,4,20,1.01
2013-12-30,39.3,32.8,20.1,36.2,23.9,9.9,95,71,43,30.17,29.54,13,6,20,0.00
2013-12-31,25.7,20.6,15.2,16.0,9.5,2.6,73,62,44,30.23,30.05,7,4,13,0.00
2014-1-1,28.3,23.6,18.9,14.6,8.9,5.3,72,54,42,30.41,30.23,9,3,16,0.00
2014-1-2,22.0,16.0,2.9,17.9,13.4,-0.1,92,89,66,30.36,29.77,14,7,24,0.04